createdAt,value
2023-01-21T00:00:57.849Z,13.15
2023-01-21T00:03:25.284Z,14.10
2023-01-21T00:05:52.377Z,17.00
2023-01-21T00:08:19.467Z,14.35
2023-01-21T00:10:46.480Z,13.80
2023-01-21T00:13:13.477Z,12.48
2023-01-21T00:15:40.407Z,15.57
2023-01-21T00:18:08.071Z,15.50
2023-01-21T00:20:35.253Z,15.50
2023-01-21T00:23:02.344Z,17.23
2023-01-21T00:25:29.484Z,18.00
2023-01-21T00:27:56.490Z,15.50
2023-01-21T00:30:23.536Z,18.23
2023-01-21T00:32:50.590Z,15.73
2023-01-21T00:35:17.688Z,15.50
2023-01-21T00:37:44.635Z,14.32
2023-01-21T00:40:12.114Z,17.45
2023-01-21T00:42:39.097Z,15.52
2023-01-21T00:45:06.701Z,15.57
2023-01-21T00:47:33.886Z,13.70
2023-01-21T00:50:00.848Z,14.82
2023-01-21T00:52:27.959Z,15.90
2023-01-21T00:54:54.843Z,15.15
2023-01-21T00:57:21.884Z,13.00
2023-01-21T00:59:49.004Z,15.77
2023-01-21T01:02:16.054Z,15.02
2023-01-21T01:04:43.104Z,17.67
2023-01-21T01:07:11.562Z,15.85
2023-01-21T01:09:38.509Z,16.77
2023-01-21T01:12:06.548Z,14.27
2023-01-21T01:14:33.548Z,13.40
2023-01-21T01:17:00.456Z,15.13
2023-01-21T01:19:27.580Z,17.77
2023-01-21T01:21:54.659Z,17.58
2023-01-21T01:24:21.593Z,21.45
2023-01-21T01:26:48.961Z,18.60
2023-01-21T01:29:16.007Z,20.00
2023-01-21T01:31:44.269Z,17.15
2023-01-21T01:34:11.298Z,17.00
2023-01-21T01:36:38.297Z,17.10
2023-01-21T01:39:05.688Z,20.08
2023-01-21T01:41:35.115Z,19.10
2023-01-21T01:44:26.506Z,19.90
2023-01-21T01:46:58.482Z,19.55
2023-01-21T01:49:25.459Z,21.83
2023-01-21T01:51:58.955Z,21.65
2023-01-21T01:54:38.489Z,20.17
2023-01-21T01:57:08.855Z,20.55
2023-01-21T01:59:36.887Z,19.30
2023-01-21T02:02:07.500Z,22.25
2023-01-21T02:04:47.123Z,23.48
2023-01-21T02:07:15.699Z,19.98
2023-01-21T02:09:42.800Z,19.92
2023-01-21T02:12:09.911Z,21.20
2023-01-21T02:14:43.223Z,22.45
2023-01-21T02:17:17.464Z,21.67
2023-01-21T02:19:59.432Z,21.88
2023-01-21T02:22:32.094Z,21.80
2023-01-21T02:25:47.055Z,22.15
2023-01-21T02:28:46.033Z,24.98
2023-01-21T02:31:44.505Z,21.73
2023-01-21T02:34:50.110Z,23.65
2023-01-21T02:37:25.614Z,23.77
2023-01-21T02:40:13.620Z,24.25
2023-01-21T02:43:01.867Z,20.23
2023-01-21T02:45:50.454Z,27.10
2023-01-21T02:48:22.559Z,26.20
2023-01-21T02:50:53.728Z,23.88
2023-01-21T02:53:29.448Z,23.77
2023-01-21T02:56:18.613Z,24.48
2023-01-21T02:58:50.455Z,25.70
2023-01-21T03:01:51.194Z,24.00
2023-01-21T03:04:47.067Z,23.77
2023-01-21T03:07:19.833Z,24.60
2023-01-21T03:09:46.934Z,25.27
2023-01-21T03:12:30.058Z,30.30
2023-01-21T03:15:53.960Z,25.42
2023-01-21T03:18:26.973Z,24.08
2023-01-21T03:21:02.904Z,26.10
2023-01-21T03:23:58.593Z,26.85
2023-01-21T03:26:36.850Z,30.70
2023-01-21T03:29:11.068Z,27.33
2023-01-21T03:31:40.340Z,26.08
2023-01-21T03:34:11.110Z,24.10
2023-01-21T03:37:16.948Z,26.55
2023-01-21T03:39:48.000Z,28.52
2023-01-21T03:42:15.678Z,30.27
2023-01-21T03:44:42.795Z,26.45
2023-01-21T03:47:33.212Z,27.08
2023-01-21T03:50:06.122Z,27.75
2023-01-21T03:52:33.669Z,28.95
2023-01-21T03:55:00.690Z,24.85
2023-01-21T03:57:27.738Z,30.13
2023-01-21T03:59:56.156Z,26.65
2023-01-21T04:02:23.323Z,26.98
2023-01-21T04:04:51.586Z,28.40
2023-01-21T04:07:19.116Z,30.80
2023-01-21T04:09:46.173Z,29.17
2023-01-21T04:12:13.311Z,31.40
2023-01-21T04:14:40.245Z,34.53
2023-01-21T04:17:07.186Z,30.50
2023-01-21T04:19:34.164Z,26.40
2023-01-21T04:22:01.183Z,27.75
2023-01-21T04:24:28.157Z,26.08
2023-01-21T04:26:55.265Z,27.75
2023-01-21T04:29:22.334Z,25.00
2023-01-21T04:31:49.394Z,26.00
2023-01-21T04:34:19.439Z,26.80
2023-01-21T04:36:46.817Z,28.98
2023-01-21T04:39:13.970Z,28.65
2023-01-21T04:41:40.906Z,28.60
2023-01-21T04:44:07.936Z,25.52
2023-01-21T04:46:34.921Z,29.27
2023-01-21T04:49:01.907Z,27.27
2023-01-21T04:51:28.923Z,30.23
2023-01-21T04:53:55.897Z,32.65
2023-01-21T04:56:23.049Z,30.52
2023-01-21T04:58:50.011Z,28.52
2023-01-21T05:01:17.075Z,27.25
2023-01-21T05:03:44.133Z,25.40
2023-01-21T05:06:11.196Z,27.83
2023-01-21T05:08:38.137Z,31.10
2023-01-21T05:11:08.414Z,27.90
2023-01-21T05:13:35.537Z,28.38
2023-01-21T05:16:08.496Z,29.80
2023-01-21T05:18:37.357Z,28.92
2023-01-21T05:21:05.325Z,29.33
2023-01-21T05:23:32.311Z,28.17
2023-01-21T05:25:59.274Z,29.23
2023-01-21T05:28:26.227Z,27.45
2023-01-21T05:30:53.279Z,27.00
2023-01-21T05:33:26.127Z,27.40
2023-01-21T05:35:53.155Z,36.67
2023-01-21T05:38:20.113Z,33.35
2023-01-21T05:40:47.140Z,30.42
2023-01-21T05:43:14.082Z,29.77
2023-01-21T05:45:41.046Z,29.10
2023-01-21T05:48:08.031Z,31.23
2023-01-21T05:50:35.080Z,32.83
2023-01-21T05:53:02.033Z,29.48
2023-01-21T05:55:28.945Z,31.20
2023-01-21T05:57:56.118Z,30.90
2023-01-21T06:00:23.223Z,34.25
2023-01-21T06:02:50.242Z,33.70
2023-01-21T06:05:17.168Z,33.75
2023-01-21T06:07:44.124Z,32.55
2023-01-21T06:10:11.275Z,33.67
2023-01-21T06:12:38.186Z,30.73
2023-01-21T06:15:05.658Z,32.35
2023-01-21T06:17:32.724Z,30.20
2023-01-21T06:19:59.645Z,33.78
2023-01-21T06:22:26.658Z,34.80
2023-01-21T06:24:53.561Z,30.73
2023-01-21T06:27:20.559Z,34.72
2023-01-21T06:29:47.469Z,33.63
2023-01-21T06:32:14.416Z,33.83
2023-01-21T06:34:41.342Z,31.30
2023-01-21T06:37:08.284Z,33.85
2023-01-21T06:39:35.501Z,34.08
2023-01-21T06:42:02.416Z,37.50
2023-01-21T06:44:29.371Z,31.13
2023-01-21T06:47:03.524Z,29.38
2023-01-21T06:49:30.486Z,35.22
2023-01-21T06:51:57.479Z,33.90
2023-01-21T06:54:24.511Z,32.33
2023-01-21T06:56:51.481Z,33.80
2023-01-21T06:59:18.437Z,34.40
2023-01-21T07:01:45.480Z,35.33
2023-01-21T07:04:12.706Z,33.40
2023-01-21T07:06:40.722Z,35.47
2023-01-21T07:09:08.126Z,36.25
2023-01-21T07:11:35.766Z,37.78
2023-01-21T07:14:02.955Z,36.17
2023-01-21T07:16:29.985Z,35.22
2023-01-21T07:18:57.020Z,35.55
2023-01-21T07:21:25.565Z,37.45
2023-01-21T07:23:53.719Z,34.15
2023-01-21T07:26:20.713Z,36.55
2023-01-21T07:28:47.878Z,33.08
2023-01-21T07:31:15.010Z,33.03
2023-01-21T07:33:42.153Z,36.67
2023-01-21T07:36:12.543Z,38.88
2023-01-21T07:38:39.540Z,34.90
2023-01-21T07:41:06.486Z,36.40
2023-01-21T07:43:33.444Z,31.48
2023-01-21T07:46:00.713Z,35.92
2023-01-21T07:48:27.737Z,35.63
2023-01-21T07:51:00.399Z,31.58
2023-01-21T07:53:27.500Z,38.30
2023-01-21T07:55:55.100Z,37.03
2023-01-21T07:58:22.030Z,41.15
2023-01-21T08:00:48.999Z,36.95
2023-01-21T08:03:18.092Z,37.03
2023-01-21T08:05:46.709Z,36.63
2023-01-21T08:08:13.651Z,38.13
2023-01-21T08:10:40.630Z,35.75
2023-01-21T08:13:07.979Z,37.95
2023-01-21T08:15:34.916Z,40.35
2023-01-21T08:18:01.892Z,37.63
2023-01-21T08:20:28.871Z,35.50
2023-01-21T08:23:00.412Z,32.55
2023-01-21T08:25:27.530Z,37.30
2023-01-21T08:27:54.481Z,34.03
2023-01-21T08:30:21.499Z,37.45
2023-01-21T08:32:48.507Z,38.13
2023-01-21T08:35:15.970Z,37.75
2023-01-21T08:37:43.563Z,37.97
2023-01-21T08:40:11.393Z,35.47
2023-01-21T08:42:38.408Z,38.03
2023-01-21T08:45:06.479Z,37.95
2023-01-21T08:47:33.417Z,38.72
2023-01-21T08:50:00.363Z,36.80
2023-01-21T08:52:27.356Z,37.70
2023-01-21T08:54:54.334Z,35.28
2023-01-21T08:57:21.300Z,38.25
2023-01-21T08:59:48.265Z,34.95
2023-01-21T09:02:15.509Z,40.03
2023-01-21T09:04:42.529Z,39.13
2023-01-21T09:07:09.490Z,38.47
2023-01-21T09:09:36.431Z,40.15
2023-01-21T09:12:05.849Z,40.08
2023-01-21T09:14:32.899Z,36.92
2023-01-21T09:16:59.850Z,36.20
2023-01-21T09:19:27.560Z,36.10
2023-01-21T09:21:55.587Z,37.50
2023-01-21T09:24:22.658Z,41.55
2023-01-21T09:26:49.594Z,41.38
2023-01-21T09:29:16.607Z,36.88
2023-01-21T09:31:43.632Z,42.92
2023-01-21T09:34:11.946Z,34.97
2023-01-21T09:36:39.645Z,37.35
2023-01-21T09:39:07.272Z,39.58
2023-01-21T09:41:37.457Z,34.80
2023-01-21T09:44:30.280Z,39.25
2023-01-21T09:47:18.029Z,36.63
2023-01-21T09:49:58.596Z,34.90
2023-01-21T09:52:41.034Z,34.90
2023-01-21T09:55:27.965Z,36.00
2023-01-21T09:58:06.802Z,35.05
2023-01-21T10:00:57.863Z,38.95
2023-01-21T10:04:09.191Z,38.60
2023-01-21T10:07:10.949Z,37.50
2023-01-21T10:09:40.616Z,31.83
2023-01-21T10:12:19.313Z,33.88
2023-01-21T10:15:00.643Z,37.88
2023-01-21T10:17:27.532Z,35.03
2023-01-21T10:20:05.261Z,35.63
2023-01-21T10:22:32.557Z,37.55
2023-01-21T10:25:03.708Z,36.47
2023-01-21T10:27:35.357Z,33.05
2023-01-21T10:30:22.619Z,39.10
2023-01-21T10:32:53.005Z,35.65
2023-01-21T10:35:31.582Z,34.20
2023-01-21T10:38:09.633Z,34.45
2023-01-21T10:40:47.504Z,39.00
2023-01-21T10:43:33.166Z,39.25
2023-01-21T10:46:28.078Z,38.75
2023-01-21T10:49:06.579Z,35.45
2023-01-21T10:51:42.993Z,38.92
2023-01-21T10:54:37.506Z,37.45
2023-01-21T10:57:23.275Z,33.33
2023-01-21T10:59:51.451Z,34.97
2023-01-21T11:02:27.820Z,36.33
2023-01-21T11:04:58.292Z,31.02
2023-01-21T11:07:26.662Z,36.70
2023-01-21T11:09:53.843Z,31.25
2023-01-21T11:12:21.716Z,34.88
2023-01-21T11:14:58.542Z,31.48
2023-01-21T11:17:37.821Z,32.45
2023-01-21T11:20:27.421Z,34.33
2023-01-21T11:22:54.621Z,35.50
2023-01-21T11:25:34.511Z,37.03
2023-01-21T11:28:02.202Z,36.72
2023-01-21T11:30:50.734Z,36.72
2023-01-21T11:33:25.816Z,33.08
2023-01-21T11:35:54.440Z,36.50
2023-01-21T11:38:25.534Z,28.58
2023-01-21T11:41:21.444Z,32.95
2023-01-21T11:43:51.658Z,32.90
2023-01-21T11:46:39.097Z,33.58
2023-01-21T11:49:08.854Z,31.52
2023-01-21T11:51:38.107Z,34.00
2023-01-21T11:54:18.108Z,35.92
2023-01-21T11:56:58.221Z,32.83
2023-01-21T11:59:25.129Z,34.60
2023-01-21T12:02:05.304Z,27.30
2023-01-21T12:04:34.540Z,32.10
2023-01-21T12:07:01.783Z,32.00
2023-01-21T12:09:29.497Z,33.83
2023-01-21T12:12:20.968Z,34.53
2023-01-21T12:14:54.592Z,32.22
2023-01-21T12:17:59.125Z,32.08
2023-01-21T12:20:32.855Z,39.08
2023-01-21T12:23:37.362Z,30.15
2023-01-21T12:26:41.400Z,29.13
2023-01-21T12:29:42.351Z,33.13
2023-01-21T12:32:17.021Z,34.92
2023-01-21T12:35:06.702Z,31.33
2023-01-21T12:37:49.181Z,31.45
2023-01-21T12:40:31.748Z,32.70
2023-01-21T12:43:06.968Z,35.88
2023-01-21T12:45:42.147Z,32.45
2023-01-21T12:48:27.591Z,37.80
2023-01-21T12:51:02.651Z,37.80
2023-01-21T12:54:04.453Z,39.42
2023-01-21T12:56:43.549Z,37.25
2023-01-21T12:59:51.933Z,38.22
2023-01-21T13:02:25.247Z,35.55
2023-01-21T13:05:17.995Z,36.05
2023-01-21T13:08:03.538Z,38.90
2023-01-21T13:10:44.113Z,38.17
2023-01-21T13:13:17.756Z,43.63
2023-01-21T13:15:49.622Z,42.67
2023-01-21T13:18:29.310Z,41.10
2023-01-21T13:21:20.039Z,42.50
2023-01-21T13:23:57.236Z,39.92
2023-01-21T13:26:31.060Z,40.40
2023-01-21T13:29:12.515Z,48.50
2023-01-21T13:32:09.851Z,47.55
2023-01-21T13:35:08.907Z,47.72
2023-01-21T13:38:05.606Z,50.63
2023-01-21T13:40:50.865Z,50.85
2023-01-21T13:43:54.754Z,47.00
2023-01-21T13:46:52.706Z,48.72
2023-01-21T13:49:39.191Z,46.22
2023-01-21T13:52:26.000Z,46.47
2023-01-21T13:55:29.740Z,43.72
2023-01-21T13:58:10.761Z,46.00
2023-01-21T14:00:40.348Z,44.65
2023-01-21T14:03:47.037Z,44.88
2023-01-21T14:06:21.490Z,48.08
2023-01-21T14:09:01.182Z,51.50
2023-01-21T14:11:35.650Z,45.75
2023-01-21T14:14:15.870Z,41.28
2023-01-21T14:16:58.617Z,42.92
2023-01-21T14:19:53.992Z,41.30
2023-01-21T14:22:58.559Z,41.50
2023-01-21T14:25:50.222Z,40.25
2023-01-21T14:28:28.375Z,43.35
2023-01-21T14:31:23.907Z,42.33
2023-01-21T14:34:15.599Z,41.85
2023-01-21T14:36:51.564Z,39.90
2023-01-21T14:39:49.196Z,39.42
2023-01-21T14:42:18.628Z,40.05
2023-01-21T14:45:04.738Z,39.78
2023-01-21T14:47:32.154Z,35.00
2023-01-21T14:50:00.126Z,39.38
2023-01-21T14:52:34.972Z,38.90
2023-01-21T14:55:03.660Z,42.63
2023-01-21T14:57:35.736Z,36.78
2023-01-21T15:00:12.570Z,37.33
2023-01-21T15:02:42.803Z,36.35
2023-01-21T15:05:25.716Z,40.42
2023-01-21T15:08:25.470Z,35.92
2023-01-21T15:11:20.802Z,33.35
2023-01-21T15:14:02.359Z,35.45
2023-01-21T15:16:36.078Z,32.67
2023-01-21T15:19:08.972Z,40.53
2023-01-21T15:21:44.705Z,36.72
2023-01-21T15:24:26.105Z,41.30
2023-01-21T15:27:15.185Z,40.20
2023-01-21T15:29:59.375Z,35.83
2023-01-21T15:32:49.695Z,34.35
2023-01-21T15:35:24.979Z,35.83
2023-01-21T15:37:59.403Z,35.53
2023-01-21T15:40:36.683Z,36.83
2023-01-21T15:43:25.971Z,37.10
2023-01-21T15:46:18.265Z,35.00
2023-01-21T15:49:00.477Z,33.28
2023-01-21T15:52:04.694Z,36.53
2023-01-21T15:54:44.178Z,32.28
2023-01-21T15:57:28.896Z,31.48
2023-01-21T15:59:58.693Z,32.88
2023-01-21T16:02:35.188Z,33.67
2023-01-21T16:05:25.235Z,34.45
2023-01-21T16:08:14.402Z,34.10
2023-01-21T16:10:51.090Z,33.50
2023-01-21T16:13:42.175Z,44.50
2023-01-21T16:16:23.354Z,37.90
2023-01-21T16:19:05.194Z,46.88
2023-01-21T16:21:42.652Z,40.15
2023-01-21T16:24:24.918Z,35.97
2023-01-21T16:26:52.107Z,35.28
2023-01-21T16:29:19.491Z,57.83
2023-01-21T16:31:59.496Z,50.70
2023-01-21T16:34:42.341Z,41.22
2023-01-21T16:37:23.854Z,43.22
2023-01-21T16:40:16.401Z,35.75
2023-01-21T16:42:44.287Z,36.10
2023-01-21T16:45:19.106Z,50.28
2023-01-21T16:47:53.336Z,43.70
2023-01-21T16:50:24.860Z,39.53
2023-01-21T16:52:53.635Z,36.80
2023-01-21T16:55:23.349Z,37.60
2023-01-21T16:57:55.501Z,42.47
2023-01-21T17:00:31.865Z,39.40
2023-01-21T17:03:00.097Z,35.55
2023-01-21T17:05:30.607Z,39.83
2023-01-21T17:08:01.339Z,40.67
2023-01-21T17:10:35.298Z,35.05
2023-01-21T17:13:14.066Z,41.50
2023-01-21T17:15:43.414Z,38.58
2023-01-21T17:18:21.678Z,34.05
2023-01-21T17:21:12.519Z,38.95
2023-01-21T17:23:52.308Z,31.77
2023-01-21T17:26:25.198Z,34.10
2023-01-21T17:29:08.325Z,34.33
2023-01-21T17:31:44.083Z,31.70
2023-01-21T17:34:17.180Z,36.92
2023-01-21T17:36:46.941Z,35.22
2023-01-21T17:39:16.857Z,37.70
2023-01-21T17:41:46.395Z,39.40
2023-01-21T17:44:16.548Z,36.67
2023-01-21T17:46:47.874Z,39.10
2023-01-21T17:49:18.306Z,39.22
2023-01-21T17:51:45.649Z,35.45
2023-01-21T17:54:23.935Z,37.08
2023-01-21T17:56:56.680Z,44.25
2023-01-21T17:59:38.241Z,36.42
2023-01-21T18:02:12.261Z,38.00
2023-01-21T18:04:40.138Z,38.30
2023-01-21T18:07:23.100Z,40.60
2023-01-21T18:09:51.728Z,35.70
2023-01-21T18:12:19.488Z,37.70
2023-01-21T18:14:47.107Z,34.58
2023-01-21T18:17:23.752Z,37.78
2023-01-21T18:19:51.021Z,37.53
2023-01-21T18:22:21.038Z,43.88
2023-01-21T18:24:48.209Z,44.30
2023-01-21T18:27:15.388Z,48.25
2023-01-21T18:29:43.400Z,41.10
2023-01-21T18:32:15.354Z,42.05
2023-01-21T18:34:42.630Z,50.58
2023-01-21T18:37:15.897Z,40.42
2023-01-21T18:39:42.946Z,37.08
2023-01-21T18:42:17.770Z,45.75
2023-01-21T18:44:44.897Z,41.25
2023-01-21T18:47:16.976Z,42.55
2023-01-21T18:49:44.438Z,36.95
2023-01-21T18:52:15.213Z,42.03
2023-01-21T18:54:42.548Z,38.80
2023-01-21T18:57:16.301Z,37.15
2023-01-21T18:59:43.295Z,42.55
2023-01-21T19:02:16.785Z,44.70
2023-01-21T19:04:44.659Z,45.00
2023-01-21T19:07:20.434Z,39.65
2023-01-21T19:09:50.561Z,37.95
2023-01-21T19:12:21.049Z,39.88
2023-01-21T19:14:48.844Z,39.85
2023-01-21T19:17:33.103Z,38.47
2023-01-21T19:20:00.167Z,37.15
2023-01-21T19:22:27.109Z,40.03
2023-01-21T19:24:54.081Z,40.30
2023-01-21T19:27:33.843Z,40.63
2023-01-21T19:30:01.257Z,38.92
2023-01-21T19:32:28.214Z,38.13
2023-01-21T19:34:57.762Z,35.40
2023-01-21T19:37:25.211Z,34.38
2023-01-21T19:39:52.146Z,37.03
2023-01-21T19:42:19.210Z,37.17
2023-01-21T19:44:46.148Z,37.22
2023-01-21T19:47:25.054Z,33.13
2023-01-21T19:49:52.010Z,33.17
2023-01-21T19:52:18.950Z,37.50
2023-01-21T19:54:45.899Z,34.47
2023-01-21T19:57:14.984Z,32.65
2023-01-21T19:59:48.064Z,31.50
2023-01-21T20:02:15.081Z,33.15
2023-01-21T20:04:42.032Z,34.42
2023-01-21T20:07:15.587Z,30.08
2023-01-21T20:09:42.616Z,32.63
2023-01-21T20:12:12.419Z,34.05
2023-01-21T20:14:39.557Z,41.10
2023-01-21T20:17:06.511Z,34.08
2023-01-21T20:19:33.623Z,33.95
2023-01-21T20:22:03.669Z,35.53
2023-01-21T20:24:33.887Z,30.02
2023-01-21T20:27:05.214Z,29.85
2023-01-21T20:29:33.644Z,31.00
2023-01-21T20:32:00.706Z,32.58
2023-01-21T20:34:30.928Z,27.45
2023-01-21T20:36:59.311Z,34.33
2023-01-21T20:39:26.500Z,31.27
2023-01-21T20:41:53.617Z,31.30
2023-01-21T20:44:20.760Z,32.50
2023-01-21T20:46:48.667Z,35.20
2023-01-21T20:49:15.579Z,32.17
2023-01-21T20:51:42.578Z,31.25
2023-01-21T20:54:09.842Z,35.00
2023-01-21T20:56:38.351Z,29.35
2023-01-21T20:59:05.575Z,29.85
2023-01-21T21:01:34.939Z,30.98
2023-01-21T21:04:02.559Z,32.42
2023-01-21T21:06:33.509Z,29.23
2023-01-21T21:09:00.722Z,28.45
2023-01-21T21:11:27.634Z,27.30
2023-01-21T21:13:55.217Z,28.13
2023-01-21T21:16:26.222Z,28.73
2023-01-21T21:18:53.405Z,29.60
2023-01-21T21:21:23.515Z,29.38
2023-01-21T21:23:51.598Z,29.02
2023-01-21T21:26:26.689Z,30.40
2023-01-21T21:28:54.935Z,25.75
2023-01-21T21:31:23.265Z,25.10
2023-01-21T21:33:50.726Z,28.08
2023-01-21T21:36:19.908Z,30.90
2023-01-21T21:38:47.584Z,27.67
2023-01-21T21:41:44.455Z,25.77
2023-01-21T21:44:11.726Z,27.02
2023-01-21T21:46:57.854Z,26.13
2023-01-21T21:49:25.318Z,30.88
2023-01-21T21:51:52.509Z,29.40
2023-01-21T21:54:19.738Z,29.67
2023-01-21T21:56:47.388Z,32.85
2023-01-21T21:59:14.986Z,29.80
2023-01-21T22:01:43.371Z,31.88
2023-01-21T22:04:10.935Z,30.90
2023-01-21T22:06:38.006Z,32.22
2023-01-21T22:09:05.539Z,36.15
2023-01-21T22:11:32.599Z,27.52
2023-01-21T22:14:03.821Z,29.90
2023-01-21T22:16:31.626Z,34.50
2023-01-21T22:19:00.309Z,29.33
2023-01-21T22:21:32.892Z,30.90
2023-01-21T22:24:01.198Z,29.15
2023-01-21T22:26:28.646Z,31.05
2023-01-21T22:28:56.002Z,30.95
2023-01-21T22:31:25.879Z,30.08
2023-01-21T22:33:53.283Z,34.30
2023-01-21T22:36:22.405Z,37.10
2023-01-21T22:38:50.460Z,31.73
2023-01-21T22:41:20.103Z,34.67
2023-01-21T22:43:49.272Z,30.25
2023-01-21T22:46:30.051Z,29.85
2023-01-21T22:48:57.801Z,29.10
2023-01-21T22:51:25.033Z,34.65
2023-01-21T22:53:54.965Z,28.42
2023-01-21T22:56:39.837Z,31.23
2023-01-21T22:59:11.352Z,30.55
2023-01-21T23:01:38.697Z,33.05
2023-01-21T23:04:05.764Z,31.10
2023-01-21T23:06:32.837Z,28.50
2023-01-21T23:09:00.586Z,33.35
2023-01-21T23:11:27.716Z,32.50
2023-01-21T23:13:55.317Z,31.77
2023-01-21T23:16:22.498Z,34.08
2023-01-21T23:18:49.651Z,31.30
2023-01-21T23:21:21.345Z,31.98
2023-01-21T23:23:49.037Z,30.13
2023-01-21T23:26:19.132Z,29.30
2023-01-21T23:28:47.251Z,30.90
2023-01-21T23:31:16.876Z,31.80
2023-01-21T23:33:44.206Z,29.65
2023-01-21T23:36:15.740Z,30.15
2023-01-21T23:38:43.439Z,29.75
2023-01-21T23:41:13.720Z,31.17
2023-01-21T23:43:40.938Z,30.58
2023-01-21T23:46:10.847Z,31.60
2023-01-21T23:48:37.969Z,35.30
2023-01-21T23:51:07.109Z,31.95
2023-01-21T23:53:34.665Z,30.30
2023-01-21T23:56:06.951Z,30.02
2023-01-21T23:58:34.254Z,31.70
